Time;durP1;ratioP1;P1;durP2;ratioP2;P2;SDS_P1;SDS_P2;PMS_P1;PMS_P2;Temp;Humidity;BMP_temperature;BMP_pressure;BME280_temperature;BME280_humidity;BME280_pressure;Samples;Min_cycle;Max_cycle;Signal;HPM_P1;HPM_P2
2021/11/17 02:27:24;;;;;;;108.40;53.00;;;;;;;-0.58;82.15;95144.42;1698663;82;21210;-63
2021/11/17 02:30:20;;;;;;;104.63;52.03;;;;;;;-0.62;82.20;95151.70;1729927;82;20976;-65
2021/11/17 02:33:12;;;;;;;121.30;56.23;;;;;;;-0.63;81.92;95153.44;1706982;82;21108;-62
2021/11/17 02:35:59;;;;;;;119.72;58.60;;;;;;;-0.68;81.95;95139.67;1716504;82;21059;-63
2021/11/17 02:38:39;;;;;;;119.62;57.45;;;;;;;-0.57;82.70;95143.27;1723856;83;20988;-63
2021/11/17 02:41:23;;;;;;;102.92;53.10;;;;;;;-0.36;82.84;95146.83;1733120;82;21169;-63
2021/11/17 02:44:20;;;;;;;133.65;65.12;;;;;;;-0.22;82.18;95142.36;1686659;84;21002;-63
2021/11/17 02:47:21;;;;;;;142.55;61.50;;;;;;;-0.25;81.30;95139.63;1670348;85;21106;-62
2021/11/17 02:50:19;;;;;;;193.10;82.37;;;;;;;-0.26;81.24;95139.43;1704738;82;21612;-63
2021/11/17 02:52:58;;;;;;;124.95;56.63;;;;;;;-0.31;80.92;95140.53;1730501;82;21105;-63
2021/11/17 02:55:48;;;;;;;174.80;75.65;;;;;;;-0.33;81.00;95130.66;1687337;82;21176;-64
2021/11/17 02:58:32;;;;;;;152.45;71.47;;;;;;;-0.39;80.32;95129.41;1692761;83;20953;-64
2021/11/17 03:01:28;;;;;;;196.10;80.57;;;;;;;-0.55;80.18;95133.47;1686692;83;21012;-62
2021/11/17 03:04:15;;;;;;;234.25;95.15;;;;;;;-0.69;80.36;95136.77;1676426;84;21063;-65
2021/11/17 03:06:47;;;;;;;185.50;82.95;;;;;;;-0.61;81.50;95130.89;1675362;84;21001;-64
2021/11/17 03:09:54;;;;;;;188.78;84.05;;;;;;;-0.41;81.28;95128.24;1701133;83;21084;-62
2021/11/17 03:13:03;;;;;;;219.00;91.53;;;;;;;-0.23;81.20;95123.82;1673951;84;21072;-65
2021/11/17 03:16:00;;;;;;;163.62;71.92;;;;;;;-0.04;80.85;95131.16;1684523;83;20989;-63
2021/11/17 03:18:41;;;;;;;161.50;68.30;;;;;;;0.09;80.11;95130.55;1680085;83;21060;-65
2021/11/17 03:21:28;;;;;;;158.25;65.92;;;;;;;0.06;79.18;95125.86;1658114;83;20989;-65
2021/11/17 03:24:21;;;;;;;168.20;73.02;;;;;;;-0.07;78.79;95127.09;1681721;83;21182;-66
2021/11/17 03:27:02;;;;;;;169.37;73.72;;;;;;;-0.22;78.88;95133.48;1662907;85;21015;-65
2021/11/17 03:29:40;;;;;;;158.52;71.65;;;;;;;-0.29;79.05;95126.06;1688017;85;21102;-65
2021/11/17 03:32:41;;;;;;;145.43;64.32;;;;;;;-0.22;78.92;95129.43;1687458;84;21589;-65
2021/11/17 03:35:13;;;;;;;141.97;67.08;;;;;;;-0.25;78.29;95124.77;1669340;84;21565;-64
2021/11/17 03:37:51;;;;;;;158.55;70.62;;;;;;;-0.37;78.35;95121.71;1624270;86;21122;-65
2021/11/17 03:40:35;;;;;;;165.15;75.12;;;;;;;-0.40;78.28;95129.80;1619972;87;21616;-65
2021/11/17 03:43:28;;;;;;;142.30;62.50;;;;;;;-0.50;78.37;95120.42;1631124;87;21187;-66
2021/11/17 03:46:04;;;;;;;;;;;;;;;-0.48;78.28;95126.23;1637280;87;20980;-65
2021/11/17 03:49:02;;;;;;;166.05;68.75;;;;;;;-0.56;78.62;95121.11;1623700;87;20155;-65
2021/11/17 03:51:58;;;;;;;366.63;138.52;;;;;;;-0.46;79.13;95131.25;1608442;87;21165;-65
2021/11/17 03:55:11;;;;;;;376.02;140.30;;;;;;;-0.43;78.71;95119.73;1689252;83;20947;-64
2021/11/17 03:57:58;;;;;;;298.03;118.57;;;;;;;-0.39;79.19;95125.95;1676975;84;21622;-63
2021/11/17 04:00:53;;;;;;;334.43;122.82;;;;;;;-0.33;78.49;95126.61;1689506;84;20967;-64
2021/11/17 04:03:52;;;;;;;313.45;127.97;;;;;;;-0.37;78.22;95124.41;1691595;83;21563;-65
2021/11/17 04:06:47;;;;;;;277.30;110.42;;;;;;;-0.36;78.89;95117.09;1696411;84;21148;-64
2021/11/17 04:09:31;;;;;;;257.50;105.45;;;;;;;-0.14;79.15;95117.53;1696386;83;21585;-63
2021/11/17 04:12:18;;;;;;;234.62;95.35;;;;;;;0.01;78.24;95116.74;1697606;84;21498;-64
2021/11/17 04:15:16;;;;;;;263.35;108.45;;;;;;;-0.02;77.43;95117.28;1692865;84;20959;-65
2021/11/17 04:18:09;;;;;;;264.68;108.70;;;;;;;-0.09;77.45;95118.55;1696071;83;21122;-65
2021/11/17 04:20:58;;;;;;;;;;;;;;;-0.22;76.86;95113.97;1684289;83;21345;-63
2021/11/17 04:23:45;;;;;;;220.33;91.80;;;;;;;-0.38;76.87;95120.75;1697978;83;20142;-63
2021/11/17 04:26:35;;;;;;;250.97;105.15;;;;;;;-0.60;76.94;95125.69;1728405;82;20959;-65
2021/11/17 04:29:16;;;;;;;216.15;88.78;;;;;;;-0.72;77.24;95111.06;1724215;82;20998;-65
2021/11/17 04:32:14;;;;;;;275.77;109.72;;;;;;;-0.82;77.47;95118.44;1720119;82;21625;-64
2021/11/17 04:35:00;;;;;;;227.00;93.25;;;;;;;-0.92;77.85;95106.94;1732368;82;21181;-65
2021/11/17 04:37:40;;;;;;;249.55;106.95;;;;;;;-0.97;78.07;95114.77;1721923;81;20999;-65
2021/11/17 04:40:46;;;;;;;197.43;89.83;;;;;;;-1.03;78.12;95112.75;1719667;82;21047;-64
2021/11/17 04:43:33;;;;;;;217.90;89.87;;;;;;;-1.05;78.21;95115.83;1701802;82;20962;-64
2021/11/17 04:46:21;;;;;;;216.57;90.85;;;;;;;-1.14;77.96;95117.23;1716758;82;21490;-65
2021/11/17 04:49:01;;;;;;;247.42;101.05;;;;;;;-1.28;78.05;95115.12;1724765;82;21137;-64
2021/11/17 04:51:51;;;;;;;213.97;95.05;;;;;;;-1.37;78.10;95113.78;1723366;82;21008;-64
2021/11/17 04:54:43;;;;;;;189.65;85.28;;;;;;;-1.37;78.31;95117.83;1694658;82;21149;-63
2021/11/17 04:57:36;;;;;;;176.05;77.95;;;;;;;-1.27;78.70;95120.72;1706163;83;21994;-64
2021/11/17 05:00:13;;;;;;;191.18;81.22;;;;;;;-1.22;77.92;95118.26;1669192;83;21117;-63
2021/11/17 05:02:58;;;;;;;150.45;64.75;;;;;;;-1.32;77.56;95112.91;1691253;83;21514;-64
2021/11/17 05:05:33;;;;;;;137.55;64.95;;;;;;;-1.35;77.53;95119.62;1679766;83;20988;-61
2021/11/17 05:08:24;;;;;;;133.52;65.67;;;;;;;-1.44;77.51;95113.69;1705445;83;20992;-64
2021/11/17 05:11:28;;;;;;;151.55;69.75;;;;;;;-1.52;77.58;95116.08;1679067;83;21511;-63
2021/11/17 05:14:26;;;;;;;159.07;72.78;;;;;;;-1.58;77.51;95107.51;1696016;83;20968;-65
2021/11/17 05:17:18;;;;;;;122.90;57.33;;;;;;;-1.68;77.57;95115.43;1677164;83;21242;-61
2021/11/17 05:20:05;;;;;;;131.70;64.97;;;;;;;-1.68;77.90;95110.04;1688224;84;20972;-61
2021/11/17 05:23:04;;;;;;;119.45;56.68;;;;;;;-1.72;77.54;95115.95;1701998;83;20957;-60
2021/11/17 05:25:53;;;;;;;115.37;55.25;;;;;;;-1.77;77.57;95110.83;1695761;84;20969;-62
2021/11/17 05:28:28;;;;;;;143.32;68.72;;;;;;;-1.86;77.36;95117.05;1687388;83;21053;-63
2021/11/17 05:31:09;;;;;;;115.20;59.73;;;;;;;-1.95;77.67;95115.73;1681755;83;21168;-62
2021/11/17 05:34:03;;;;;;;144.35;70.45;;;;;;;-1.92;77.91;95114.42;1683853;83;21465;-60
2021/11/17 05:36:56;;;;;;;125.45;61.30;;;;;;;-1.94;77.92;95119.39;1680527;82;20987;-63
2021/11/17 05:39:45;;;;;;;129.35;66.33;;;;;;;-1.84;78.05;95108.59;1699629;83;24945;-63
2021/11/17 05:42:26;;;;;;;124.50;61.77;;;;;;;-1.94;77.55;95118.63;1692442;83;21086;-62
2021/11/17 05:45:21;;;;;;;133.00;63.30;;;;;;;-2.10;77.56;95116.02;1686660;83;21575;-62
2021/11/17 05:47:53;;;;;;;157.80;80.62;;;;;;;-2.18;78.01;95121.09;1697686;83;21615;-62
2021/11/17 05:50:44;;;;;;;166.97;78.65;;;;;;;-2.21;78.25;95116.42;1676128;83;21563;-62
2021/11/17 05:53:34;;;;;;;168.02;79.03;;;;;;;-2.15;78.41;95110.94;1686117;83;20987;-63
2021/11/17 05:56:44;;;;;;;148.38;70.62;;;;;;;-2.05;78.71;95121.70;1672301;83;20968;-63
2021/11/17 05:59:28;;;;;;;176.78;86.08;;;;;;;-1.96;78.29;95121.67;1686522;84;21082;-66
2021/11/17 06:02:21;;;;;;;152.80;70.57;;;;;;;-1.96;78.37;95119.56;1691336;84;20967;-63
2021/11/17 06:04:47;;;;;;;161.65;81.82;;;;;;;-1.96;78.09;95123.61;1692020;84;21006;-64
2021/11/17 06:07:13;;;;;;;193.95;88.92;;;;;;;-2.00;78.04;95125.47;1691607;84;21050;-65
2021/11/17 06:09:39;;;;;;;215.37;98.15;;;;;;;-2.05;78.10;95121.14;1660316;86;21522;-65
2021/11/17 06:12:11;;;;;;;201.82;97.20;;;;;;;-2.02;78.27;95124.47;1647884;87;21227;-66
2021/11/17 06:14:43;;;;;;;198.95;94.70;;;;;;;-1.87;78.92;95123.58;1625550;86;21096;-70
2021/11/17 06:17:19;;;;;;;185.97;89.30;;;;;;;-1.66;78.55;95125.28;1688119;84;21058;-65
2021/11/17 06:19:48;;;;;;;190.62;92.67;;;;;;;-1.49;78.22;95121.51;1691480;84;21078;-64
2021/11/17 06:22:18;;;;;;;184.48;94.92;;;;;;;-1.35;77.87;95120.97;1656235;86;21019;-66
2021/11/17 06:24:46;;;;;;;273.68;135.20;;;;;;;-1.18;77.74;95115.83;1645763;87;21153;-64
2021/11/17 06:27:16;;;;;;;287.93;145.65;;;;;;;-0.98;77.43;95119.20;1654557;85;20980;-65
2021/11/17 06:29:46;;;;;;;324.80;158.20;;;;;;;-0.82;76.81;95116.52;1634575;86;21056;-65
2021/11/17 06:32:13;;;;;;;249.62;121.85;;;;;;;-0.70;76.04;95126.32;1655253;86;20968;-64
2021/11/17 06:34:49;;;;;;;272.10;130.50;;;;;;;-0.65;75.59;95116.53;1655297;86;21532;-64
2021/11/17 06:37:19;;;;;;;280.12;134.95;;;;;;;-0.72;74.79;95117.81;1644817;85;21086;-65
2021/11/17 06:39:47;;;;;;;283.77;133.45;;;;;;;-0.84;74.75;95116.67;1653090;86;21068;-61
2021/11/17 06:42:21;;;;;;;342.37;151.35;;;;;;;-0.91;74.54;95112.55;1646468;85;21058;-63
2021/11/17 06:44:48;;;;;;;330.20;153.80;;;;;;;-0.93;75.05;95117.53;1647999;85;21033;-62
2021/11/17 06:47:15;;;;;;;349.10;152.20;;;;;;;-0.77;74.92;95115.44;1646928;86;21077;-64
2021/11/17 06:49:42;;;;;;;356.70;159.63;;;;;;;-0.64;74.43;95123.50;1647327;85;21143;-64
2021/11/17 06:52:09;;;;;;;411.20;172.62;;;;;;;-0.66;73.90;95113.63;1647900;86;21024;-62
2021/11/17 06:54:37;;;;;;;364.75;161.20;;;;;;;-0.70;73.95;95110.11;1629154;85;21141;-66
2021/11/17 06:57:04;;;;;;;413.85;175.15;;;;;;;-0.69;74.08;95106.27;1651480;85;21996;-63
2021/11/17 06:59:31;;;;;;;366.95;165.62;;;;;;;-0.66;74.15;95097.42;1664149;84;22001;-66
2021/11/17 07:02:04;;;;;;;330.23;152.32;;;;;;;-0.60;74.17;95101.38;1635441;85;21131;-66
2021/11/17 07:04:26;;;;;;;345.57;155.95;;;;;;;-0.56;74.09;95103.55;1633486;86;21640;-65
2021/11/17 07:06:52;;;;;;;363.20;164.00;;;;;;;-0.52;74.13;95098.39;1629154;85;21043;-61
2021/11/17 07:09:19;;;;;;;333.32;151.32;;;;;;;-0.44;74.02;95101.96;1628458;85;21052;-65
2021/11/17 07:11:45;;;;;;;376.73;167.47;;;;;;;-0.35;73.78;95102.44;1644673;85;22240;-64
2021/11/17 07:14:13;;;;;;;361.32;157.67;;;;;;;-0.30;73.84;95099.40;1624641;86;21117;-62
2021/11/17 07:16:40;;;;;;;312.82;151.53;;;;;;;-0.16;74.22;95096.86;1635335;85;21000;-63
2021/11/17 07:19:09;;;;;;;311.27;146.82;;;;;;;0.01;73.77;95097.81;1646983;85;21106;-62
2021/11/17 07:21:38;;;;;;;279.50;131.78;;;;;;;0.11;73.53;95094.45;1630913;86;21025;-64
2021/11/17 07:24:06;;;;;;;241.95;120.10;;;;;;;0.16;73.32;95091.95;1622967;86;21003;-58
2021/11/17 07:26:32;;;;;;;256.50;123.33;;;;;;;0.21;73.22;95081.58;1621568;86;22229;-63
2021/11/17 07:28:59;;;;;;;227.75;121.95;;;;;;;0.24;72.95;95090.30;1649279;85;21079;-61
2021/11/17 07:31:26;;;;;;;210.10;104.30;;;;;;;0.30;72.94;95086.12;1646811;85;21082;-63
2021/11/17 07:33:52;;;;;;;135.97;70.20;;;;;;;0.43;73.08;95084.66;1619648;86;21104;-61
2021/11/17 07:36:20;;;;;;;188.35;91.05;;;;;;;0.55;72.94;95088.44;1652573;85;21050;-67
2021/11/17 07:38:48;;;;;;;190.92;90.92;;;;;;;0.69;73.06;95092.61;1653765;85;22483;-62
2021/11/17 07:41:15;;;;;;;148.53;79.15;;;;;;;0.80;72.83;95083.97;1603387;87;21565;-64
2021/11/17 07:43:43;;;;;;;159.12;86.78;;;;;;;0.89;72.80;95082.29;1624996;86;21719;-61
2021/11/17 07:46:10;;;;;;;154.68;82.57;;;;;;;1.00;73.02;95084.50;1622697;85;21142;-64
2021/11/17 07:48:37;;;;;;;153.20;80.35;;;;;;;1.15;72.74;95085.55;1622910;86;21085;-60
2021/11/17 07:51:04;;;;;;;180.03;87.15;;;;;;;1.24;72.78;95077.87;1604701;86;21124;-65
2021/11/17 07:53:32;;;;;;;183.87;89.20;;;;;;;1.36;73.09;95077.52;1627919;86;20954;-63
2021/11/17 07:56:00;;;;;;;173.78;92.17;;;;;;;1.56;72.56;95078.00;1632455;86;21589;-61
2021/11/17 07:58:29;;;;;;;168.02;86.60;;;;;;;1.68;72.41;95079.03;1652199;84;21484;-62
2021/11/17 08:00:56;;;;;;;178.32;93.75;;;;;;;1.86;72.19;95076.55;1650426;84;22359;-62
2021/11/17 08:03:24;;;;;;;171.47;94.32;;;;;;;1.93;72.00;95073.88;1629269;85;21104;-63
2021/11/17 08:05:52;;;;;;;171.05;89.90;;;;;;;2.01;72.11;95071.36;1657680;85;21039;-65
2021/11/17 08:08:19;;;;;;;174.57;93.75;;;;;;;2.14;72.34;95069.25;1637809;85;21582;-65
2021/11/17 08:10:46;;;;;;;162.70;83.85;;;;;;;2.25;72.28;95070.05;1637473;86;21093;-66
2021/11/17 08:13:12;;;;;;;128.07;65.03;;;;;;;2.38;72.25;95066.38;1628150;85;21457;-66
2021/11/17 08:15:40;;;;;;;97.10;54.00;;;;;;;2.48;72.16;95065.02;1644099;85;21212;-66
2021/11/17 08:18:06;;;;;;;86.22;50.12;;;;;;;2.57;72.31;95066.78;1626799;85;20982;-67
2021/11/17 08:20:33;;;;;;;87.92;49.58;;;;;;;2.71;72.52;95070.06;1644919;85;22391;-65
2021/11/17 08:22:59;;;;;;;107.95;58.98;;;;;;;2.87;72.73;95074.52;1639434;85;21043;-68
2021/11/17 08:25:29;;;;;;;117.17;63.78;;;;;;;3.05;72.48;95065.16;1647623;85;21055;-75
2021/11/17 08:27:56;;;;;;;107.15;59.83;;;;;;;3.26;72.12;95072.50;1636421;85;21077;-70
2021/11/17 08:30:25;;;;;;;136.92;77.12;;;;;;;3.44;71.45;95067.78;1666962;85;21108;-66
2021/11/17 08:32:51;;;;;;;115.77;59.23;;;;;;;3.53;71.33;95068.92;1635888;85;21619;-62
2021/11/17 08:35:22;;;;;;;86.63;51.20;;;;;;;3.67;71.05;95066.91;1637760;86;21545;-60
2021/11/17 08:37:50;;;;;;;92.72;50.78;;;;;;;3.76;70.58;95063.77;1633164;85;21089;-65
2021/11/17 08:40:19;;;;;;;104.43;57.78;;;;;;;3.96;70.84;95065.62;1614317;86;21610;-65
2021/11/17 08:42:45;;;;;;;97.82;53.92;;;;;;;4.23;70.41;95061.77;1619842;85;21079;-67
2021/11/17 08:45:12;;;;;;;131.82;74.40;;;;;;;4.53;70.58;95057.27;1625866;85;21628;-64
2021/11/17 08:47:41;;;;;;;134.27;71.82;;;;;;;4.87;69.73;95059.52;1604857;85;21129;-64
2021/11/17 08:50:10;;;;;;;116.37;57.85;;;;;;;5.19;68.95;95051.04;1650447;85;21102;-65
2021/11/17 08:52:38;;;;;;;104.07;56.80;;;;;;;5.55;68.30;95046.14;1650832;84;21025;-66
2021/11/17 08:55:08;;;;;;;87.57;50.83;;;;;;;5.99;67.06;95059.08;1693287;82;21126;-59
2021/11/17 08:57:34;;;;;;;85.20;50.55;;;;;;;6.28;65.84;95048.54;1684852;83;21071;-63
2021/11/17 09:00:07;;;;;;;104.80;59.88;;;;;;;6.44;65.11;95051.43;1681086;83;21096;-67
2021/11/17 09:02:40;;;;;;;135.95;74.27;;;;;;;6.53;64.68;95044.87;1683494;82;21592;-70
2021/11/17 09:05:05;;;;;;;150.25;89.80;;;;;;;6.84;64.81;95040.84;1676569;81;21796;-71
2021/11/17 09:07:32;;;;;;;153.45;82.47;;;;;;;7.36;63.51;95034.45;1684951;83;21094;-63
2021/11/17 09:09:58;;;;;;;155.43;85.28;;;;;;;7.73;62.79;95030.78;1680913;81;22441;-63
2021/11/17 09:12:25;;;;;;;155.05;85.00;;;;;;;8.06;62.32;95028.95;1679448;82;21067;-61
2021/11/17 09:14:54;;;;;;;154.70;84.28;;;;;;;8.33;60.87;95028.95;1696705;82;21562;-65
2021/11/17 09:17:20;;;;;;;133.72;72.15;;;;;;;8.45;60.45;95025.53;1684953;82;21116;-63
2021/11/17 09:19:47;;;;;;;117.57;67.30;;;;;;;8.65;59.07;95030.34;1688952;82;21551;-70
2021/11/17 09:22:13;;;;;;;110.28;62.90;;;;;;;8.83;58.56;95018.36;1676835;84;21099;-62
2021/11/17 09:24:40;;;;;;;90.32;50.78;;;;;;;8.95;58.54;95019.83;1657399;83;21042;-72
2021/11/17 09:27:07;;;;;;;67.85;42.60;;;;;;;9.12;58.21;95022.73;1693124;82;21568;-63
2021/11/17 09:29:34;;;;;;;76.85;43.73;;;;;;;9.25;57.55;95013.95;1684015;81;21136;-67
2021/11/17 09:32:01;;;;;;;76.05;41.95;;;;;;;9.54;57.67;95008.47;1672727;82;21063;-63
2021/11/17 09:34:28;;;;;;;84.25;46.37;;;;;;;9.99;56.08;95005.05;1686964;82;21585;-68
2021/11/17 09:36:55;;;;;;;59.55;37.48;;;;;;;10.19;54.75;95002.30;1699917;82;21059;-63
2021/11/17 09:39:22;;;;;;;67.58;39.55;;;;;;;10.28;54.46;95001.05;1668963;83;21423;-61
2021/11/17 09:41:51;;;;;;;74.85;43.90;;;;;;;10.42;54.33;94994.34;1694182;83;21166;-63
2021/11/17 09:44:29;;;;;;;47.00;29.77;;;;;;;10.66;53.85;94990.83;1679207;83;21110;-62
2021/11/17 09:46:56;;;;;;;43.25;26.50;;;;;;;10.87;53.18;94982.67;1678835;82;21439;-66
2021/11/17 09:49:28;;;;;;;39.50;25.62;;;;;;;11.02;53.02;94980.20;1688842;83;21148;-63
2021/11/17 09:51:58;;;;;;;38.20;23.83;;;;;;;11.14;51.94;94969.16;1683661;82;21043;-65
2021/11/17 09:54:31;;;;;;;42.98;24.63;;;;;;;11.05;51.91;94964.17;1673715;84;21141;-66
2021/11/17 09:57:02;;;;;;;36.58;18.60;;;;;;;10.89;51.82;94959.59;1679301;82;21183;-63
2021/11/17 09:59:37;;;;;;;32.80;20.65;;;;;;;10.77;51.66;94952.12;1679334;81;21037;-66
2021/11/17 10:02:15;;;;;;;41.05;24.52;;;;;;;10.75;51.40;94955.92;1678031;82;21077;-65
2021/11/17 10:04:50;;;;;;;43.45;22.52;;;;;;;10.81;51.84;94945.89;1686195;84;21161;-66
2021/11/17 10:12:54;;;;;;;48.85;30.55;;;;;;;11.62;51.37;94932.86;1692741;82;21448;-67
2021/11/17 10:15:22;;;;;;;35.88;22.50;;;;;;;12.06;50.11;94928.83;1687590;82;21389;-65
2021/11/17 10:17:57;;;;;;;49.88;27.13;;;;;;;12.48;49.96;94919.52;1689229;82;21052;-63
2021/11/17 10:20:32;;;;;;;52.65;26.25;;;;;;;12.89;48.38;94921.17;1691390;82;21802;-65
2021/11/17 10:23:16;;;;;;;33.15;22.32;;;;;;;13.12;47.72;94915.09;1665067;82;21065;-66
2021/11/17 10:26:07;;;;;;;38.78;26.12;;;;;;;13.41;47.38;94909.90;1664607;84;21061;-64
2021/11/17 10:29:01;;;;;;;32.03;21.33;;;;;;;13.57;47.13;94912.32;1685216;83;21365;-63
2021/11/17 10:31:45;;;;;;;42.27;28.42;;;;;;;13.82;46.59;94907.86;1675505;83;21094;-65
2021/11/17 10:34:22;;;;;;;41.75;26.35;;;;;;;14.08;45.75;94909.02;1690925;83;21174;-63
2021/11/17 10:37:12;;;;;;;45.43;28.10;;;;;;;14.32;45.58;94900.97;1694592;82;21545;-66
2021/11/17 10:39:46;;;;;;;51.88;27.48;;;;;;;14.82;44.37;94893.20;1709580;81;22201;-66
2021/11/17 10:42:24;;;;;;;46.33;24.12;;;;;;;15.21;44.05;94894.79;1690017;82;21045;-66
2021/11/17 10:45:05;;;;;;;52.40;24.92;;;;;;;15.58;43.14;94884.33;1701442;82;21049;-64
2021/11/17 10:47:36;;;;;;;62.43;28.05;;;;;;;15.78;42.25;94885.87;1675104;83;21149;-66
2021/11/17 10:50:23;;;;;;;56.20;25.60;;;;;;;15.75;42.01;94885.41;1693788;82;21184;-62
2021/11/17 10:53:00;;;;;;;31.90;19.62;;;;;;;15.66;42.40;94882.73;1718753;81;21038;-65
2021/11/17 10:55:34;;;;;;;26.15;15.25;;;;;;;15.53;42.20;94881.48;1693002;83;21124;-66
2021/11/17 10:58:06;;;;;;;21.85;14.78;;;;;;;15.51;42.29;94877.03;1667419;83;21160;-62
2021/11/17 11:00:47;;;;;;;22.80;14.18;;;;;;;15.81;41.37;94882.13;1694879;82;21150;-60
2021/11/17 11:03:16;;;;;;;28.25;16.90;;;;;;;16.27;41.00;94876.23;1641864;84;21129;-61
2021/11/17 11:05:50;;;;;;;25.60;15.65;;;;;;;16.57;40.08;94874.34;1638031;85;21067;-64
2021/11/17 11:08:28;;;;;;;23.12;14.25;;;;;;;16.84;39.48;94864.27;1629811;85;21487;-61
2021/11/17 11:10:59;;;;;;;23.25;15.85;;;;;;;16.87;39.29;94863.93;1660541;84;21022;-62
2021/11/17 11:13:38;;;;;;;29.20;18.07;;;;;;;16.73;39.09;94860.56;1628663;86;21703;-61
2021/11/17 11:16:20;;;;;;;26.40;15.98;;;;;;;16.62;39.69;94857.62;1674230;83;21613;-66
2021/11/17 11:18:52;;;;;;;24.72;16.20;;;;;;;17.02;39.32;94857.66;1695136;83;21538;-61
2021/11/17 11:21:42;;;;;;;20.50;14.90;;;;;;;17.84;38.29;94856.52;1659192;83;22247;-63
2021/11/17 11:24:28;;;;;;;26.17;15.23;;;;;;;18.46;36.98;94849.74;1660483;82;21073;-65
2021/11/17 11:27:04;;;;;;;21.97;14.83;;;;;;;19.04;36.19;94851.88;1662572;84;21657;-62
2021/11/17 11:29:34;;;;;;;27.27;14.95;;;;;;;19.71;35.07;94845.99;1683838;83;21579;-62
2021/11/17 11:32:10;;;;;;;25.32;15.03;;;;;;;20.29;34.44;94843.83;1674122;82;21082;-65
2021/11/17 11:35:02;;;;;;;20.92;14.58;;;;;;;20.85;33.47;94837.57;1651244;85;21182;-64
2021/11/17 11:37:36;;;;;;;20.23;14.63;;;;;;;21.47;32.22;94829.89;1674606;82;21548;-62
2021/11/17 11:40:08;;;;;;;24.60;15.65;;;;;;;21.83;32.12;94832.27;1679564;83;21718;-65
2021/11/17 11:42:58;;;;;;;25.10;15.75;;;;;;;22.26;31.12;94826.27;1684350;83;21081;-65
2021/11/17 11:45:33;;;;;;;22.37;15.80;;;;;;;22.74;30.19;94824.36;1679105;83;21093;-64
2021/11/17 11:48:26;;;;;;;63.33;18.23;;;;;;;23.29;29.42;94827.25;1697723;83;21575;-62
2021/11/17 11:51:01;;;;;;;23.50;13.50;;;;;;;23.66;28.55;94821.70;1678791;83;21086;-62
2021/11/17 11:53:58;;;;;;;21.27;12.43;;;;;;;23.95;28.08;94821.58;1693155;82;21131;-64
2021/11/17 11:56:45;;;;;;;28.38;14.85;;;;;;;24.06;27.74;94815.81;1701958;83;21035;-63
2021/11/17 11:59:19;;;;;;;19.92;13.72;;;;;;;24.12;27.69;94812.27;1687913;83;21440;-63
2021/11/17 12:01:48;;;;;;;26.57;15.13;;;;;;;24.31;27.50;94812.99;1709098;82;21543;-64
2021/11/17 12:04:23;;;;;;;20.23;14.78;;;;;;;24.57;27.21;94806.09;1686395;82;21605;-61
2021/11/17 12:07:01;;;;;;;35.43;17.65;;;;;;;24.80;26.85;94811.45;1681742;83;22255;-59
2021/11/17 12:09:35;;;;;;;34.67;21.60;;;;;;;25.02;26.57;94808.23;1680863;81;21323;-59
2021/11/17 12:12:18;;;;;;;27.50;19.98;;;;;;;25.12;26.55;94806.52;1692249;82;20991;-62
2021/11/17 12:14:55;;;;;;;28.90;18.02;;;;;;;25.32;26.11;94806.65;1675918;83;21094;-65
2021/11/17 12:17:26;;;;;;;25.92;16.80;;;;;;;25.32;26.23;94808.05;1688585;82;21098;-64
2021/11/17 12:19:57;;;;;;;46.65;17.67;;;;;;;25.32;26.19;94805.91;1678803;83;21472;-66
2021/11/17 12:22:41;;;;;;;48.65;19.35;;;;;;;25.42;25.93;94801.34;1673249;82;21081;-63
2021/11/17 12:25:30;;;;;;;34.85;24.15;;;;;;;25.54;25.50;94802.00;1695165;82;21068;-65
2021/11/17 12:28:07;;;;;;;45.28;22.37;;;;;;;25.43;25.21;94796.58;1684486;83;21510;-65
2021/11/17 12:30:42;;;;;;;26.95;19.60;;;;;;;25.37;25.68;94795.17;1673121;84;21051;-63
2021/11/17 12:33:14;;;;;;;34.60;22.35;;;;;;;25.35;25.00;94797.14;1676277;84;21188;-63
2021/11/17 12:35:49;;;;;;;35.55;24.40;;;;;;;25.24;25.37;94793.75;1680552;82;21471;-61
2021/11/17 12:38:19;;;;;;;35.33;25.90;;;;;;;25.18;25.42;94795.30;1684202;83;21087;-65
2021/11/17 12:40:57;;;;;;;39.20;26.20;;;;;;;25.12;25.52;94791.77;1687390;83;22514;-64
2021/11/17 12:43:34;;;;;;;40.67;24.15;;;;;;;25.12;25.72;94786.14;1701456;82;21112;-66
2021/11/17 12:46:25;;;;;;;55.33;28.10;;;;;;;24.88;25.90;94791.20;1681022;83;21091;-63
2021/11/17 12:49:15;;;;;;;49.15;25.55;;;;;;;24.68;26.25;94794.63;1694165;83;21071;-64
2021/11/17 12:52:05;;;;;;;31.02;21.07;;;;;;;24.70;26.19;94780.78;1646322;85;21063;-65
2021/11/17 12:54:38;;;;;;;46.35;23.73;;;;;;;24.66;26.24;94785.97;1639666;85;21066;-65
2021/11/17 12:57:13;;;;;;;;;;;;;;;24.76;26.26;94783.61;1652160;85;21099;-63
2021/11/17 12:59:48;;;;;;;27.93;16.87;;;;;;;24.70;25.96;94775.16;1668709;83;21168;-63
2021/11/17 13:02:29;;;;;;;20.50;13.25;;;;;;;24.30;26.28;94772.10;1688286;83;21563;-65
2021/11/17 13:05:31;;;;;;;18.15;12.63;;;;;;;24.03;26.50;94773.31;1687088;83;21169;-64
2021/11/17 13:08:05;;;;;;;17.48;13.60;;;;;;;23.63;26.55;94773.59;1678601;82;21097;-61
2021/11/17 13:10:44;;;;;;;21.12;13.85;;;;;;;23.33;27.06;94764.53;1659469;84;21058;-63
2021/11/17 13:13:25;;;;;;;31.62;16.52;;;;;;;23.32;27.13;94765.19;1684423;82;21152;-60
2021/11/17 13:16:02;;;;;;;21.10;13.13;;;;;;;23.38;26.98;94773.55;1694793;82;21118;-65
2021/11/17 13:18:39;;;;;;;15.58;11.90;;;;;;;23.27;27.15;94768.84;1700098;82;21034;-65
2021/11/17 13:21:29;;;;;;;20.52;11.80;;;;;;;22.99;27.34;94775.38;1716968;82;21046;-66
2021/11/17 13:24:20;;;;;;;17.23;11.30;;;;;;;22.73;27.67;94779.98;1722385;82;21014;-65
2021/11/17 13:27:11;;;;;;;20.37;13.18;;;;;;;22.31;28.20;94781.36;1730004;82;21132;-62
2021/11/17 13:29:57;;;;;;;21.87;15.10;;;;;;;21.81;28.55;94781.61;1691427;82;21173;-63
2021/11/17 13:32:34;;;;;;;20.82;12.28;;;;;;;21.40;29.03;94781.42;1655557;84;21043;-65
2021/11/17 13:35:34;;;;;;;21.95;13.40;;;;;;;21.00;29.32;94775.11;1686461;84;21516;-60
2021/11/17 13:38:21;;;;;;;19.98;12.75;;;;;;;20.22;29.98;94772.31;1694711;83;21175;-72
2021/11/17 13:40:52;;;;;;;33.15;15.65;;;;;;;19.18;31.47;94779.84;1701646;83;21134;-65
2021/11/17 13:43:19;;;;;;;34.23;19.52;;;;;;;18.10;32.78;94780.06;1675909;83;21065;-65
2021/11/17 13:45:48;;;;;;;34.43;18.92;;;;;;;17.28;33.86;94780.02;1650619;84;21644;-66
2021/11/17 13:48:17;;;;;;;37.03;23.50;;;;;;;16.49;35.36;94779.39;1690888;83;21075;-64
2021/11/17 13:50:44;;;;;;;35.33;20.92;;;;;;;15.34;37.09;94781.05;1698650;83;20977;-65
2021/11/17 13:53:12;;;;;;;54.70;29.90;;;;;;;14.39;38.56;94785.01;1711614;82;21130;-64
2021/11/17 13:55:44;;;;;;;51.95;25.62;;;;;;;13.66;40.14;94792.06;1713208;82;21594;-64
2021/11/17 13:58:10;;;;;;;38.90;22.05;;;;;;;13.06;41.39;94793.40;1705898;83;21060;-64
2021/11/17 14:00:39;;;;;;;41.60;23.07;;;;;;;12.54;42.63;94792.28;1692920;83;21078;-64
2021/11/17 14:03:06;;;;;;;40.45;22.37;;;;;;;12.12;43.47;94788.37;1665633;84;21107;-64
2021/11/17 14:05:34;;;;;;;27.40;15.35;;;;;;;11.70;44.43;94788.69;1705904;83;21135;-63
2021/11/17 14:08:00;;;;;;;21.07;11.95;;;;;;;11.29;45.57;94785.69;1714493;82;21025;-65
2021/11/17 14:10:30;;;;;;;26.48;12.65;;;;;;;10.93;46.38;94796.46;1708092;82;21538;-64
2021/11/17 14:12:57;;;;;;;45.55;18.52;;;;;;;10.57;47.11;94798.14;1678306;84;21512;-64
2021/11/17 14:15:24;;;;;;;44.10;20.02;;;;;;;10.19;47.95;94791.98;1664437;84;21097;-62
2021/11/17 14:17:50;;;;;;;60.60;28.25;;;;;;;9.88;48.81;94795.73;1666431;83;21153;-65
2021/11/17 14:20:17;;;;;;;67.58;29.05;;;;;;;9.65;49.75;94796.08;1665603;83;21030;-63
2021/11/17 14:22:43;;;;;;;57.45;26.33;;;;;;;9.50;50.40;94793.60;1644222;85;21042;-64
2021/11/17 14:25:16;;;;;;;51.40;26.00;;;;;;;9.34;50.88;94801.94;1643741;85;21002;-64
2021/11/17 14:27:40;;;;;;;55.60;28.47;;;;;;;9.17;51.33;94801.84;1652966;83;21081;-64
2021/11/17 14:30:16;;;;;;;94.32;50.38;;;;;;;8.97;51.78;94807.52;1687970;83;21554;-61
2021/11/17 14:32:45;;;;;;;85.25;43.63;;;;;;;8.80;52.49;94810.75;1689427;82;21184;-61